Map

Track Data

SID SEASON NUMBER BASIN SUBBASIN NAME ISO_TIME NATURE LAT LON WMO_WIND WMO_PRES WMO_AGENCY TRACK_TYPE DIST2LAND LANDFALL IFLAG USA_AGENCY USA_ATCF_ID USA_LAT USA_LON USA_RECORD USA_STATUS USA_WIND USA_PRES USA_SSHS USA_R34_NE USA_R34_SE USA_R34_SW USA_R34_NW USA_R50_NE USA_R50_SE USA_R50_SW USA_R50_NW USA_R64_NE USA_R64_SE USA_R64_SW USA_R64_NW USA_POCI USA_ROCI USA_RMW USA_EYE TOKYO_LAT TOKYO_LON TOKYO_GRADE TOKYO_WIND TOKYO_PRES TOKYO_R50_DIR TOKYO_R50_LONG TOKYO_R50_SHORT TOKYO_R30_DIR TOKYO_R30_LONG TOKYO_R30_SHORT TOKYO_LAND CMA_LAT CMA_LON CMA_CAT CMA_WIND CMA_PRES HKO_LAT HKO_LON HKO_CAT HKO_WIND HKO_PRES NEWDELHI_LAT NEWDELHI_LON NEWDELHI_GRADE NEWDELHI_WIND NEWDELHI_PRES NEWDELHI_CI NEWDELHI_DP NEWDELHI_POCI REUNION_LAT REUNION_LON REUNION_TYPE REUNION_WIND REUNION_PRES REUNION_TNUM REUNION_CI REUNION_RMW REUNION_R34_NE REUNION_R34_SE REUNION_R34_SW REUNION_R34_NW REUNION_R50_NE REUNION_R50_SE REUNION_R50_SW REUNION_R50_NW REUNION_R64_NE REUNION_R64_SE REUNION_R64_SW REUNION_R64_NW BOM_LAT BOM_LON BOM_TYPE BOM_WIND BOM_PRES BOM_TNUM BOM_CI BOM_RMW BOM_R34_NE BOM_R34_SE BOM_R34_SW BOM_R34_NW BOM_R50_NE BOM_R50_SE BOM_R50_SW BOM_R50_NW BOM_R64_NE BOM_R64_SE BOM_R64_SW BOM_R64_NW BOM_ROCI BOM_POCI BOM_EYE BOM_POS_METHOD BOM_PRES_METHOD NADI_LAT NADI_LON NADI_CAT NADI_WIND NADI_PRES WELLINGTON_LAT WELLINGTON_LON WELLINGTON_WIND WELLINGTON_PRES DS824_LAT DS824_LON DS824_STAGE DS824_WIND DS824_PRES TD9636_LAT TD9636_LON TD9636_STAGE TD9636_WIND TD9636_PRES TD9635_LAT TD9635_LON TD9635_WIND TD9635_PRES TD9635_ROCI NEUMANN_LAT NEUMANN_LON NEUMANN_CLASS NEUMANN_WIND NEUMANN_PRES MLC_LAT MLC_LON MLC_CLASS MLC_WIND MLC_PRES USA_GUST BOM_GUST BOM_GUST_PER REUNION_GUST REUNION_GUST_PER USA_SEAHGT USA_SEARAD_NE USA_SEARAD_SE USA_SEARAD_SW USA_SEARAD_NW STORM_SPEED STORM_DIR
1959300N09083 1959 99 NI BB NOT_NAMED 1959-10-26 18:00:00 TS 8.80000 82.6000 main 139 129 O________O____ jtwc_io IO131959 8.80000 82.6000 -1 8.80000 82.6000 TC 2 295
1959300N09083 1959 99 NI BB NOT_NAMED 1959-10-26 21:00:00 TS 8.84500 82.5025 main 129 123 P________P____ IO131959 8.84500 82.5025 -1 8.84500 82.5025 TC 3 315
1959300N09083 1959 99 NI BB NOT_NAMED 1959-10-27 00:00:00 TS 9.00000 82.4000 main 128 126 O________O____ jtwc_io IO131959 9.00000 82.4000 -1 9.00000 82.4000 TC 25 5 337
1959300N09083 1959 99 NI BB NOT_NAMED 1959-10-27 03:00:00 TS 9.33557 82.2934 main 138 138 P________PO___ IO131959 9.34001 82.2925 -1 9.34001 82.2925 TC 25 9.30000 82.3000 1 8 347
1959300N09083 1959 99 NI BB NOT_NAMED 1959-10-27 06:00:00 TS 9.81094 82.2084 main 162 162 O________OP___ jtwc_io IO131959 9.80000 82.2000 -1 9.80000 82.2000 TC 25 9.85470 82.2419 1 10 352
1959300N09083 1959 99 NI BB NOT_NAMED 1959-10-27 09:00:00 TS 10.3184 82.1492 main 181 181 P________PP___ IO131959 10.2925 82.1350 -1 10.2925 82.1350 TC 25 10.3876 82.1870 1 10 354
1959300N09083 1959 99 NI BB NOT_NAMED 1959-10-27 12:00:00 TS 10.8256 82.1129 main 220 220 O________OP___ jtwc_io IO131959 10.8000 82.1000 -1 10.8000 82.1000 TC 25 10.8767 82.1386 1 10 357
1959300N09083 1959 99 NI BB NOT_NAMED 1959-10-27 15:00:00 TS 11.2867 82.0900 main 240 225 P________PO___ IO131959 11.2800 82.0850 -1 11.2800 82.0850 TC 25 11.3000 82.1000 1 9 360
1959300N09083 1959 99 NI BB NOT_NAMED 1959-10-27 18:00:00 TS 11.6833 82.0931 main 225 214 O________OP___ jtwc_io IO131959 11.7000 82.1000 -1 11.7000 82.1000 TC 25 11.6498 82.0792 1 7 0
1959300N09083 1959 99 NI BB NOT_NAMED 1959-10-27 21:00:00 TS 11.9765 82.1091 main 214 211 P________PP___ IO131959 11.9775 82.1127 -1 11.9775 82.1127 TC 25 11.9746 82.1019 1 6 10
1959300N09083 1959 99 NI BB NOT_NAMED 1959-10-28 00:00:00 TS 12.3124 82.1995 main 218 217 O________OP___ jtwc_io IO131959 12.3000 82.2000 -1 12.3000 82.2000 TC 25 12.3371 82.1986 1 9 18
1959300N09083 1959 99 NI BB NOT_NAMED 1959-10-28 03:00:00 TS 12.8166 82.3886 main 234 229 P________PO___ IO131959 12.8249 82.3829 -1 12.8249 82.3829 TC 25 12.8000 82.4000 1 13 23
1959300N09083 1959 99 NI BB NOT_NAMED 1959-10-28 06:00:00 TS 13.4862 82.7084 main 259 259 O________OP___ jtwc_io IO131959 13.5000 82.7000 -1 13.5000 82.7000 TC 25 13.4587 82.7252 1 16 27
1959300N09083 1959 99 NI BB NOT_NAMED 1959-10-28 09:00:00 TS 14.2627 83.1604 main 273 226 P________PP___ IO131959 14.2851 83.1623 -1 14.2851 83.1623 TC 25 14.2179 83.1566 1 19 31
1959300N09083 1959 99 NI BB NOT_NAMED 1959-10-28 12:00:00 TS 15.0727 83.6867 main 225 210 O________OP___ jtwc_io IO131959 15.1000 83.7000 -1 15.1000 83.7000 TC 25 15.0181 83.6600 1 19 33
1959300N09083 1959 99 NI BB NOT_NAMED 1959-10-28 15:00:00 TS 15.8199 84.2002 main 221 200 P________PO___ IO131959 15.8299 84.2003 -1 15.8299 84.2003 TC 25 15.8000 84.2000 1 17 34
1959300N09083 1959 99 NI BB NOT_NAMED 1959-10-28 18:00:00 TS 16.4912 84.6943 main 200 171 O________OP___ jtwc_io IO131959 16.5000 84.7000 -1 16.5000 84.7000 TC 25 16.4737 84.6828 1 16 36
1959300N09083 1959 99 NI BB NOT_NAMED 1959-10-28 21:00:00 TS 17.1067 85.1752 main 177 169 P________PP___ IO131959 17.0996 85.1635 -1 17.0996 85.1635 TC 25 17.1209 85.1985 1 16 39
1959300N09083 1959 99 NI BB NOT_NAMED 1959-10-29 00:00:00 TS 17.7192 85.7216 main 169 167 O________OP___ jtwc_io IO131959 17.7000 85.7000 -1 17.7000 85.7000 TC 25 17.7577 85.7647 1 17 42
1959300N09083 1959 99 NI BB NOT_NAMED 1959-10-29 03:00:00 TS 18.3950 86.4034 main 168 124 P________PO___ IO131959 18.3925 86.4051 -1 18.3925 86.4051 TC 25 18.4000 86.4000 1 20 45
1959300N09083 1959 99 NI BB NOT_NAMED 1959-10-29 06:00:00 TS 19.0921 87.1761 main 131 129 O________OP___ jtwc_io IO131959 19.1000 87.2000 -1 19.1000 87.2000 TC 25 19.0762 87.1283 1 20 47
1959300N09083 1959 99 NI BB NOT_NAMED 1959-10-29 09:00:00 TS 19.7575 87.9706 main 144 135 P________PP___ IO131959 19.7572 87.9932 -1 19.7572 87.9932 TC 25 19.7579 87.9255 1 20 49
1959300N09083 1959 99 NI BB NOT_NAMED 1959-10-29 12:00:00 TS 20.4118 88.7867 main 134 78 O________OP___ jtwc_io IO131959 20.4000 88.8000 -1 20.4000 88.8000 TC 25 20.4355 88.7601 1 20 49
1959300N09083 1959 99 NI BB NOT_NAMED 1959-10-29 15:00:00 TS 21.0664 89.6005 main 70 22 P________PO___ IO131959 21.0496 89.6007 -1 21.0496 89.6007 TC 25 21.1000 89.6000 1 20 49
1959300N09083 1959 99 NI BB NOT_NAMED 1959-10-29 18:00:00 TS 21.7182 90.4078 main 23 10 O________OP___ jtwc_io IO131959 21.7000 90.4000 -1 21.7000 90.4000 TC 25 21.7454 90.4195 1 20 49
1959300N09083 1959 99 NI BB NOT_NAMED 1959-10-29 21:00:00 TS 22.3609 91.2078 main 30 0 P________PP___ IO131959 22.3508 91.1985 -1 22.3508 91.1985 TC 25 22.3743 91.2203 1 20 49
1959300N09083 1959 99 NI BB NOT_NAMED 1959-10-30 00:00:00 TS 22.9956 92.0055 main 0 0 O________OP___ jtwc_io IO131959 23.0000 92.0000 -1 23.0000 92.0000 TC 25 22.9912 92.0110 1 19 50
1959300N09083 1959 99 NI BB NOT_NAMED 1959-10-30 03:00:00 NR 23.6000 92.8000 main 0 __________O___ IO131959 -1 TC 23.6000 92.8000 1 19 50

About IBTrACS Database

This database is a web-friendly format of International Best Track Archive for Climate Stewardship (IBTrACS), a global best track data archive curated by NOAA dating back to 1842.

Updated: 2021-10-08